Time;durP1;ratioP1;P1;durP2;ratioP2;P2;SDS_P1;SDS_P2;PMS_P1;PMS_P2;Temp;Humidity;BMP_temperature;BMP_pressure;BME280_temperature;BME280_humidity;BME280_pressure;Samples;Min_cycle;Max_cycle;Signal;HPM_P1;HPM_P2
2022/06/08 00:02:36;;;;;;;5.47;2.70;;;15.80;99.90;;;;;;5061299;28;20386;-83
2022/06/08 00:05:20;;;;;;;2.50;2.30;;;15.60;99.90;;;;;;5060976;28;20382;-83
2022/06/08 00:08:05;;;;;;;2.47;2.27;;;15.70;99.90;;;;;;5066123;28;20767;-83
2022/06/08 00:10:51;;;;;;;2.60;2.40;;;15.70;99.90;;;;;;5064722;28;20920;-83
2022/06/08 00:13:36;;;;;;;2.63;2.43;;;15.70;99.90;;;;;;5064177;28;20386;-83
2022/06/08 00:16:21;;;;;;;2.20;2.00;;;15.70;99.90;;;;;;5066971;28;20409;-83
2022/06/08 00:19:05;;;;;;;2.53;2.33;;;15.90;99.90;;;;;;5060609;28;20466;-83
2022/06/08 00:21:50;;;;;;;2.73;2.53;;;16.00;99.90;;;;;;5060891;28;20405;-83
2022/06/08 00:24:34;;;;;;;1.90;1.80;;;16.00;99.90;;;;;;5061162;28;20444;-83
2022/06/08 00:27:19;;;;;;;3.47;3.00;;;15.90;99.90;;;;;;5061182;28;20410;-83
2022/06/08 00:30:06;;;;;;;2.63;2.40;;;16.10;99.90;;;;;;5047031;28;20410;-83
2022/06/08 00:32:51;;;;;;;2.73;2.53;;;16.20;99.90;;;;;;5060479;28;20807;-83
2022/06/08 00:35:36;;;;;;;2.30;2.20;;;16.40;99.90;;;;;;5063155;28;20482;-83
2022/06/08 00:38:21;;;;;;;2.53;2.33;;;16.50;99.90;;;;;;5064880;28;20460;-83
2022/06/08 00:41:30;;;;;;;5.27;2.93;;;16.20;99.90;;;;;;5062218;28;20398;-83
2022/06/08 00:44:27;;;;;;;2.17;2.07;;;16.10;99.90;;;;;;5065725;28;20389;-83
2022/06/08 00:47:18;;;;;;;2.90;2.17;;;16.10;99.90;;;;;;5066742;28;20413;-83
2022/06/08 00:50:11;;;;;;;4.47;2.50;;;16.00;99.90;;;;;;5066986;28;20390;-83
2022/06/08 00:52:57;;;;;;;3.00;2.80;;;15.90;99.90;;;;;;5066874;28;20398;-83
2022/06/08 00:55:43;;;;;;;2.20;2.10;;;16.10;99.90;;;;;;5067372;28;20448;-83
2022/06/08 00:58:31;;;;;;;2.57;2.17;;;16.20;99.90;;;;;;5067519;28;20497;-83
2022/06/08 01:01:18;;;;;;;2.50;2.30;;;16.00;99.90;;;;;;5066363;28;20390;-83
2022/06/08 01:04:07;;;;;;;2.30;2.20;;;16.00;99.90;;;;;;5064885;28;20398;-83
2022/06/08 01:06:57;;;;;;;6.03;2.47;;;16.00;99.90;;;;;;5067657;28;20410;-83
2022/06/08 01:09:43;;;;;;;3.70;2.63;;;15.80;99.90;;;;;;5008847;28;20959;-83
2022/06/08 01:12:28;;;;;;;2.10;1.90;;;15.90;99.90;;;;;;5026420;28;20392;-83
2022/06/08 01:15:16;;;;;;;2.47;2.27;;;15.70;99.90;;;;;;5012192;28;20407;-83
2022/06/08 01:18:01;;;;;;;2.10;2.00;;;15.90;99.90;;;;;;5012604;28;20510;-83
2022/06/08 01:20:48;;;;;;;2.50;2.40;;;15.80;99.90;;;;;;5028017;28;20400;-83
2022/06/08 01:23:33;;;;;;;2.87;2.63;;;15.90;99.90;;;;;;5012419;28;20966;-83
2022/06/08 01:26:30;;;;;;;2.00;1.90;;;15.80;99.90;;;;;;5026956;28;20400;-83
2022/06/08 01:29:34;;;;;;;3.37;2.80;;;15.70;99.90;;;;;;5015431;28;20411;-83
2022/06/08 01:32:28;;;;;;;2.73;2.50;;;15.90;99.90;;;;;;5010594;28;20395;-83
2022/06/08 01:35:27;;;;;;;2.70;2.50;;;16.00;99.90;;;;;;5017908;28;20439;-84
2022/06/08 01:38:28;;;;;;;3.00;1.80;;;16.00;99.90;;;;;;5016866;28;20479;-83
2022/06/08 01:41:45;;;;;;;2.87;2.67;;;15.90;99.90;;;;;;5049194;28;20421;-84
2022/06/08 01:48:18;;;;;;;2.53;2.33;;;15.90;99.90;;;;;;5057962;28;20437;-83
2022/06/08 01:51:21;;;;;;;5.43;2.53;;;15.80;99.90;;;;;;5057891;28;20393;-83
2022/06/08 01:54:16;;;;;;;2.47;2.27;;;15.80;99.90;;;;;;5058398;28;20905;-81
2022/06/08 01:57:22;;;;;;;4.00;2.73;;;15.80;99.90;;;;;;5058010;28;21035;-83
2022/06/08 02:00:11;;;;;;;3.50;2.27;;;15.90;99.90;;;;;;5058344;28;20467;-83
2022/06/08 02:03:16;;;;;;;2.40;2.20;;;15.90;99.90;;;;;;5058590;28;20417;-83
2022/06/08 02:06:11;;;;;;;3.40;2.23;;;15.80;99.90;;;;;;5058123;28;20445;-82
2022/06/08 02:09:03;;;;;;;3.00;2.70;;;15.80;99.90;;;;;;5059067;28;20401;-84
2022/06/08 02:11:59;;;;;;;2.30;2.20;;;15.80;99.90;;;;;;5059103;28;20490;-82
2022/06/08 02:14:56;;;;;;;3.10;2.37;;;15.80;99.90;;;;;;5057999;28;20482;-84
2022/06/08 02:17:52;;;;;;;2.53;2.33;;;16.00;99.90;;;;;;5057386;28;20568;-84
2022/06/08 02:20:44;;;;;;;3.10;2.13;;;16.00;99.90;;;;;;5058590;28;20402;-83
2022/06/08 02:23:41;;;;;;;2.50;2.40;;;15.80;99.90;;;;;;5058097;28;20401;-83
2022/06/08 02:26:32;;;;;;;2.47;2.27;;;15.70;99.90;;;;;;5057821;28;20484;-83
2022/06/08 02:29:26;;;;;;;4.30;2.20;;;15.60;99.90;;;;;;5058244;28;20398;-83
2022/06/08 02:35:19;;;;;;;2.40;2.20;;;15.80;99.90;;;;;;5060303;28;20426;-83
2022/06/08 02:38:10;;;;;;;3.70;2.67;;;15.90;99.90;;;;;;5061318;28;20438;-83
2022/06/08 02:40:58;;;;;;;3.13;2.93;;;15.70;99.90;;;;;;5062468;28;20397;-83
2022/06/08 02:43:48;;;;;;;8.60;3.10;;;15.80;99.90;;;;;;5062513;28;20418;-84
2022/06/08 02:46:50;;;;;;;2.80;2.60;;;15.70;99.90;;;;;;5060658;28;20885;-83
2022/06/08 02:49:36;;;;;;;3.07;2.77;;;15.80;99.90;;;;;;5061523;28;20402;-83
2022/06/08 02:52:25;;;;;;;5.30;2.90;;;15.90;99.90;;;;;;5061783;28;20393;-84
2022/06/08 02:55:26;;;;;;;3.00;2.80;;;15.80;99.90;;;;;;5060794;28;20401;-84
2022/06/08 02:58:29;;;;;;;3.53;3.10;;;16.00;99.90;;;;;;5060597;28;20493;-84
2022/06/08 03:01:28;;;;;;;2.50;2.30;;;16.00;99.90;;;;;;5062393;28;20427;-83
2022/06/08 03:04:25;;;;;;;4.30;3.80;;;15.80;99.90;;;;;;5062816;28;20462;-83
2022/06/08 03:07:16;;;;;;;3.83;3.40;;;15.50;99.90;;;;;;5064984;28;20444;-83
2022/06/08 03:10:06;;;;;;;10.10;3.93;;;15.50;99.90;;;;;;5062536;28;20389;-84
2022/06/08 03:12:59;;;;;;;3.47;2.97;;;15.40;99.90;;;;;;5061299;28;20493;-84
2022/06/08 03:15:52;;;;;;;3.20;2.70;;;15.40;99.90;;;;;;5061551;28;20771;-83
2022/06/08 03:18:36;;;;;;;2.90;2.70;;;15.40;99.90;;;;;;5060711;28;20456;-84
2022/06/08 03:21:21;;;;;;;2.60;2.23;;;15.50;99.90;;;;;;5061916;28;20406;-83
2022/06/08 03:24:06;;;;;;;2.40;2.20;;;15.40;99.90;;;;;;5046463;28;20894;-84
2022/06/08 03:26:55;;;;;;;7.03;3.33;;;15.50;99.90;;;;;;5061278;28;20409;-83
2022/06/08 03:29:40;;;;;;;2.97;2.73;;;15.50;99.90;;;;;;5061222;28;20398;-84
2022/06/08 03:32:24;;;;;;;2.47;2.33;;;15.50;99.90;;;;;;5061164;28;20457;-84
2022/06/08 03:35:10;;;;;;;3.87;2.70;;;15.30;99.90;;;;;;5061221;28;20434;-84
2022/06/08 03:37:55;;;;;;;2.93;2.70;;;15.30;99.90;;;;;;5061713;28;20460;-82
2022/06/08 03:40:40;;;;;;;3.00;2.80;;;15.30;99.90;;;;;;5060969;28;20390;-84
2022/06/08 03:43:24;;;;;;;3.60;2.50;;;15.50;99.90;;;;;;5061530;28;20393;-84
2022/06/08 03:46:10;;;;;;;3.30;2.60;;;15.50;99.90;;;;;;5059680;28;20414;-83
2022/06/08 03:48:58;;;;;;;3.17;2.33;;;15.40;99.90;;;;;;5072267;28;20428;-84
2022/06/08 03:51:44;;;;;;;3.00;2.10;;;15.30;99.90;;;;;;5086288;28;20447;-84
2022/06/08 03:54:33;;;;;;;3.30;2.90;;;15.30;99.90;;;;;;5083609;28;20408;-83
2022/06/08 03:57:19;;;;;;;3.67;2.77;;;15.30;99.90;;;;;;5081677;28;20818;-84
2022/06/08 04:00:06;;;;;;;3.10;2.83;;;15.30;99.90;;;;;;5081876;28;20417;-84
2022/06/08 04:02:54;;;;;;;2.53;2.33;;;15.20;99.90;;;;;;5062909;28;20421;-84
2022/06/08 04:05:39;;;;;;;2.77;2.57;;;15.30;99.90;;;;;;5063466;28;20398;-84
2022/06/08 04:08:24;;;;;;;4.03;2.97;;;15.50;99.90;;;;;;5065855;28;20406;-84
2022/06/08 04:11:11;;;;;;;3.40;2.83;;;15.40;99.90;;;;;;5074153;28;20838;-83
2022/06/08 04:13:58;;;;;;;3.53;3.27;;;15.40;99.90;;;;;;5075104;28;20409;-83
2022/06/08 04:16:42;;;;;;;2.80;2.60;;;15.30;99.90;;;;;;5066720;28;20393;-85
2022/06/08 04:19:30;;;;;;;3.20;2.90;;;15.30;99.90;;;;;;5064934;28;20445;-82
2022/06/08 04:22:18;;;;;;;2.80;2.60;;;15.30;99.90;;;;;;5067471;28;20906;-84
2022/06/08 04:25:03;;;;;;;3.13;2.93;;;15.50;99.90;;;;;;5068173;28;20397;-84
2022/06/08 04:27:48;;;;;;;4.80;3.90;;;15.40;99.90;;;;;;5066425;28;20433;-84
2022/06/08 04:30:33;;;;;;;3.50;3.20;;;15.40;99.90;;;;;;5066183;28;20390;-85
2022/06/08 04:33:18;;;;;;;3.20;2.90;;;15.40;99.90;;;;;;5066403;28;20401;-85
2022/06/08 04:36:04;;;;;;;3.80;3.50;;;15.50;99.90;;;;;;5066304;28;20390;-84
2022/06/08 04:38:49;;;;;;;3.63;3.23;;;15.50;99.90;;;;;;5066698;28;20848;-84
2022/06/08 04:41:35;;;;;;;3.13;2.93;;;15.40;99.90;;;;;;5066509;28;20401;-84
2022/06/08 04:44:19;;;;;;;6.33;3.10;;;15.40;99.90;;;;;;5066571;28;20397;-84
2022/06/08 04:47:04;;;;;;;6.13;3.17;;;15.60;99.90;;;;;;5065739;28;20749;-84
2022/06/08 04:49:48;;;;;;;3.40;3.10;;;15.70;99.90;;;;;;5066540;28;20807;-83
2022/06/08 04:52:34;;;;;;;2.87;2.67;;;15.70;99.90;;;;;;5065849;28;20421;-82
2022/06/08 04:55:19;;;;;;;4.27;2.90;;;15.50;99.90;;;;;;5064393;28;20982;-84
2022/06/08 04:58:04;;;;;;;3.17;2.87;;;15.40;99.90;;;;;;5058750;28;20816;-83
2022/06/08 05:00:49;;;;;;;3.60;2.77;;;15.50;99.90;;;;;;5060297;28;20465;-83
2022/06/08 05:03:33;;;;;;;3.40;2.90;;;15.60;99.90;;;;;;5058940;28;20398;-83
2022/06/08 05:06:18;;;;;;;2.83;2.60;;;15.60;99.90;;;;;;5061841;28;20472;-83
2022/06/08 05:09:02;;;;;;;5.60;3.40;;;15.70;99.90;;;;;;5072772;28;20455;-83
2022/06/08 05:11:47;;;;;;;5.07;3.60;;;15.70;99.90;;;;;;5060374;28;20437;-84
2022/06/08 05:14:31;;;;;;;3.10;2.90;;;15.70;99.90;;;;;;5063955;28;20472;-83
2022/06/08 05:17:16;;;;;;;2.60;2.40;;;15.80;99.90;;;;;;5048859;28;20933;-83
2022/06/08 05:20:02;;;;;;;3.27;3.00;;;16.00;99.90;;;;;;5043796;28;20477;-84
2022/06/08 05:22:47;;;;;;;6.23;3.40;;;16.00;99.90;;;;;;5048847;28;20452;-82
2022/06/08 05:25:36;;;;;;;4.60;3.27;;;16.20;99.90;;;;;;5057597;28;20809;-83
2022/06/08 05:28:21;;;;;;;4.00;3.60;;;16.50;99.90;;;;;;5057771;28;20498;-82
2022/06/08 05:31:05;;;;;;;3.47;3.20;;;16.60;99.90;;;;;;5053328;28;20476;-82
2022/06/08 05:33:50;;;;;;;5.10;3.50;;;16.80;99.90;;;;;;5050231;28;20533;-82
2022/06/08 05:36:34;;;;;;;4.27;3.60;;;17.00;99.90;;;;;;5054354;28;20871;-83
2022/06/08 05:39:19;;;;;;;3.43;3.23;;;17.00;99.90;;;;;;5054791;28;20665;-82
2022/06/08 05:42:04;;;;;;;3.30;3.10;;;17.20;99.90;;;;;;5052357;28;20534;-82
2022/06/08 05:44:49;;;;;;;3.93;3.27;;;17.00;99.90;;;;;;5013505;28;20451;-81
2022/06/08 05:47:33;;;;;;;4.90;2.70;;;17.20;99.90;;;;;;5025769;28;20556;-82
2022/06/08 05:50:21;;;;;;;3.40;3.17;;;17.20;99.90;;;;;;5050650;28;20444;-82
2022/06/08 05:53:06;;;;;;;4.10;2.53;;;17.20;99.90;;;;;;5052302;28;20438;-83
2022/06/08 05:55:51;;;;;;;3.50;3.20;;;17.60;99.90;;;;;;5030628;28;20489;-83
2022/06/08 05:58:38;;;;;;;3.90;3.10;;;17.30;99.90;;;;;;5052003;28;20524;-83
2022/06/08 06:01:23;;;;;;;3.63;2.77;;;17.40;99.90;;;;;;5050473;28;20485;-82
2022/06/08 06:04:09;;;;;;;2.33;2.17;;;17.60;99.90;;;;;;5049044;28;20457;-83
2022/06/08 06:06:56;;;;;;;4.47;3.37;;;17.80;99.90;;;;;;5048605;28;21032;-83
2022/06/08 06:09:44;;;;;;;3.67;3.20;;;17.60;99.90;;;;;;5025877;28;20461;-83
2022/06/08 06:12:30;;;;;;;4.50;3.23;;;17.60;99.90;;;;;;5025485;28;20513;-83
2022/06/08 06:15:17;;;;;;;3.37;3.07;;;17.60;99.90;;;;;;5058668;28;20507;-83
2022/06/08 06:18:02;;;;;;;3.30;3.00;;;17.80;99.90;;;;;;5054877;28;20461;-83
2022/06/08 06:20:48;;;;;;;4.70;2.83;;;18.20;99.90;;;;;;5074109;28;20483;-83
2022/06/08 06:23:33;;;;;;;3.30;3.00;;;18.30;99.90;;;;;;5072580;28;20951;-83
2022/06/08 06:26:22;;;;;;;3.90;3.70;;;17.90;99.90;;;;;;5080691;28;20518;-82
2022/06/08 06:29:06;;;;;;;4.77;2.43;;;17.60;99.90;;;;;;5069218;28;20444;-83
2022/06/08 06:31:55;;;;;;;3.40;3.10;;;17.90;99.90;;;;;;5035650;28;20433;-83
2022/06/08 06:34:39;;;;;;;3.20;2.90;;;18.10;99.90;;;;;;5048004;28;20492;-83
2022/06/08 06:37:29;;;;;;;4.83;3.10;;;18.10;99.90;;;;;;5033528;28;20434;-83
2022/06/08 06:40:14;;;;;;;3.17;2.60;;;18.20;99.90;;;;;;5035961;28;20521;-83
2022/06/08 06:42:59;;;;;;;3.30;3.10;;;18.50;99.90;;;;;;5032795;28;20857;-83
2022/06/08 06:45:44;;;;;;;4.20;2.90;;;18.70;99.90;;;;;;5051217;28;20433;-83
2022/06/08 06:48:29;;;;;;;3.23;3.03;;;18.80;99.90;;;;;;5049644;28;20432;-83
2022/06/08 06:51:18;;;;;;;6.00;2.70;;;18.90;99.90;;;;;;5047252;28;20894;-83
2022/06/08 06:54:04;;;;;;;4.50;2.83;;;18.70;99.90;;;;;;5045379;28;20457;-83
2022/06/08 06:56:49;;;;;;;5.10;2.97;;;18.40;99.90;;;;;;5013081;28;20580;-83
2022/06/08 06:59:34;;;;;;;2.50;2.30;;;18.30;99.90;;;;;;5029522;28;20831;-82
2022/06/08 07:02:20;;;;;;;7.67;3.07;;;18.70;99.90;;;;;;5048450;28;20436;-82
2022/06/08 07:05:05;;;;;;;4.57;2.87;;;18.80;99.90;;;;;;5068055;28;20451;-82
2022/06/08 07:07:50;;;;;;;8.23;3.00;;;18.90;99.90;;;;;;5059184;28;20453;-83
2022/06/08 07:10:36;;;;;;;3.57;2.50;;;19.00;99.90;;;;;;5057660;28;20446;-82
2022/06/08 07:13:21;;;;;;;3.33;3.03;;;18.70;99.90;;;;;;5063122;28;20428;-82
2022/06/08 07:16:08;;;;;;;2.93;2.63;;;19.00;99.90;;;;;;5063272;28;21113;-84
2022/06/08 07:18:53;;;;;;;3.67;2.90;;;19.20;99.90;;;;;;5063419;28;20461;-82
2022/06/08 07:21:39;;;;;;;9.63;2.90;;;19.00;99.90;;;;;;5060013;28;20451;-83
2022/06/08 07:24:30;;;;;;;4.30;3.30;;;19.00;99.90;;;;;;5069385;28;20432;-83
2022/06/08 07:27:16;;;;;;;2.70;2.50;;;18.90;99.90;;;;;;5069620;28;20518;-83
2022/06/08 07:30:03;;;;;;;3.13;2.93;;;19.10;99.90;;;;;;5070390;28;20425;-83
2022/06/08 07:32:47;;;;;;;3.07;2.10;;;19.40;99.90;;;;;;5071783;28;20509;-82
2022/06/08 07:35:32;;;;;;;7.10;2.93;;;19.30;99.90;;;;;;5073657;28;20439;-83
2022/06/08 07:38:18;;;;;;;3.03;2.40;;;19.40;99.90;;;;;;5063270;28;21575;-84
2022/06/08 07:41:03;;;;;;;2.40;2.30;;;19.40;99.90;;;;;;5072517;28;20885;-83
2022/06/08 07:43:50;;;;;;;3.93;2.30;;;19.40;99.90;;;;;;5070295;28;20440;-83
2022/06/08 07:46:35;;;;;;;8.00;2.37;;;19.40;99.90;;;;;;5071601;28;20437;-82
2022/06/08 07:52:22;;;;;;;5.77;2.13;;;19.50;99.90;;;;;;5066514;28;20498;-82
2022/06/08 07:55:07;;;;;;;4.93;2.47;;;19.60;99.90;;;;;;5073772;28;20424;-83
2022/06/08 07:57:51;;;;;;;3.60;3.30;;;19.60;99.90;;;;;;5067382;28;20483;-83
2022/06/08 08:00:36;;;;;;;2.27;2.07;;;19.40;99.90;;;;;;5075174;28;20447;-83
2022/06/08 08:03:21;;;;;;;2.40;2.20;;;19.60;99.90;;;;;;5067656;28;20426;-82
2022/06/08 08:06:06;;;;;;;3.20;2.90;;;19.70;99.90;;;;;;5063282;28;20455;-82
2022/06/08 08:08:51;;;;;;;4.13;2.00;;;20.00;99.90;;;;;;5068710;28;20432;-85
2022/06/08 08:11:36;;;;;;;2.23;2.03;;;20.00;99.90;;;;;;5068653;28;20435;-84
2022/06/08 08:14:23;;;;;;;2.37;2.13;;;20.20;99.90;;;;;;5074422;28;20440;-84
2022/06/08 08:17:08;;;;;;;5.17;2.13;;;20.20;99.90;;;;;;5076096;28;20803;-84
2022/06/08 08:19:55;;;;;;;13.63;2.40;;;20.20;99.90;;;;;;5073196;28;20460;-80
2022/06/08 08:22:40;;;;;;;3.27;2.30;;;20.40;99.90;;;;;;5045334;28;20484;-78
2022/06/08 08:25:25;;;;;;;3.30;2.13;;;20.30;99.90;;;;;;5048343;28;20428;-82
2022/06/08 08:28:11;;;;;;;3.87;2.23;;;20.70;99.90;;;;;;5043331;28;20460;-83
2022/06/08 08:30:55;;;;;;;4.13;1.87;;;21.00;99.90;;;;;;5045339;28;20538;-82
2022/06/08 08:33:40;;;;;;;6.20;2.57;;;20.90;99.90;;;;;;5066355;28;20464;-80
2022/06/08 08:36:25;;;;;;;3.77;2.07;;;20.60;99.90;;;;;;5081044;28;20424;-82
2022/06/08 08:39:15;;;;;;;1.60;1.50;;;20.50;99.90;;;;;;5067193;28;20468;-82
2022/06/08 08:45:12;;;;;;;2.30;2.10;;;20.50;99.90;;;;;;5079150;28;20416;-81
2022/06/08 08:48:09;;;;;;;4.30;2.17;;;20.50;99.90;;;;;;5076651;28;20487;-81
2022/06/08 08:51:06;;;;;;;2.40;1.77;;;20.30;99.90;;;;;;5080928;28;20804;-82
2022/06/08 08:54:31;;;;;;;3.93;1.40;;;20.70;99.90;;;;;;5062705;28;20439;-83
2022/06/08 08:57:37;;;;;;;1.50;1.40;;;20.60;99.90;;;;;;5081729;28;20654;-83
2022/06/08 09:00:37;;;;;;;3.50;1.90;;;20.70;99.90;;;;;;5074564;28;20802;-80
2022/06/08 09:03:39;;;;;;;3.77;2.30;;;20.80;99.90;;;;;;5083820;28;20433;-83
2022/06/08 09:06:27;;;;;;;3.53;1.87;;;20.60;99.90;;;;;;5077161;28;20764;-83
2022/06/08 09:09:18;;;;;;;6.90;2.03;;;20.60;99.90;;;;;;5078371;28;20448;-82
2022/06/08 09:12:02;;;;;;;2.80;1.73;;;20.80;99.90;;;;;;5052730;28;20477;-82
2022/06/08 09:14:58;;;;;;;3.60;1.53;;;20.80;99.90;;;;;;5077865;28;20479;-83
2022/06/08 09:17:56;;;;;;;2.50;2.30;;;20.60;99.90;;;;;;5075334;28;20464;-82
2022/06/08 09:20:41;;;;;;;3.50;1.97;;;20.50;99.90;;;;;;5078197;28;20430;-82
2022/06/08 09:23:49;;;;;;;4.00;2.00;;;20.70;99.90;;;;;;5070417;28;20460;-82
2022/06/08 09:26:39;;;;;;;1.83;1.73;;;21.00;99.90;;;;;;5077778;28;20412;-82
2022/06/08 09:29:29;;;;;;;6.70;1.90;;;20.70;99.90;;;;;;5082458;28;21035;-82
2022/06/08 09:32:33;;;;;;;2.53;2.10;;;20.90;99.90;;;;;;5077469;28;20435;-83
2022/06/08 09:35:32;;;;;;;2.03;1.80;;;21.00;99.90;;;;;;5058543;28;20486;-82
2022/06/08 09:38:17;;;;;;;3.43;2.10;;;20.90;99.90;;;;;;5080385;28;20487;-82
2022/06/08 09:41:17;;;;;;;1.63;1.53;;;21.10;99.90;;;;;;5075473;28;20448;-81
2022/06/08 09:44:29;;;;;;;5.30;2.57;;;21.10;99.90;;;;;;5068020;28;20433;-83
2022/06/08 09:54:11;;;;;;;1.60;1.50;;;21.20;99.90;;;;;;5080114;28;20465;-82
2022/06/08 09:57:20;;;;;;;1.73;1.33;;;21.30;99.90;;;;;;5076080;28;20471;-83
2022/06/08 10:00:18;;;;;;;3.47;1.53;;;21.70;99.90;;;;;;5025340;28;20498;-84
2022/06/08 10:03:36;;;;;;;3.13;1.73;;;21.60;99.90;;;;;;5018644;28;20438;-81
2022/06/08 10:06:41;;;;;;;1.77;1.40;;;21.70;99.90;;;;;;5016944;28;20443;-82
2022/06/08 10:09:42;;;;;;;1.40;1.30;;;21.70;99.90;;;;;;5023026;28;20473;-83
2022/06/08 10:12:53;;;;;;;2.07;1.50;;;21.70;99.90;;;;;;5024053;28;20447;-83
2022/06/08 10:15:45;;;;;;;1.40;1.30;;;21.90;99.90;;;;;;5022771;28;20465;-82
2022/06/08 10:18:37;;;;;;;2.40;1.57;;;21.90;99.90;;;;;;5008980;28;20454;-84
2022/06/08 10:21:33;;;;;;;1.87;1.77;;;22.50;99.90;;;;;;5011931;28;20530;-81
2022/06/08 10:24:30;;;;;;;1.93;1.47;;;23.00;99.90;;;;;;5028642;28;20453;-82
2022/06/08 10:27:21;;;;;;;3.10;1.97;;;22.60;99.90;;;;;;5022224;28;21050;-84
2022/06/08 10:30:23;;;;;;;1.73;1.60;;;22.50;99.90;;;;;;5012961;28;20440;-84
2022/06/08 10:33:31;;;;;;;5.13;1.70;;;22.50;99.90;;;;;;5066197;28;20448;-83
2022/06/08 10:36:17;;;;;;;3.90;2.07;;;22.30;99.90;;;;;;5070704;28;20521;-82
2022/06/08 10:39:05;;;;;;;1.73;1.60;;;22.00;99.90;;;;;;5062155;28;21260;-83
2022/06/08 10:45:35;;;;;;;1.83;1.70;;;21.90;99.90;;;;;;5075256;28;20553;-85
2022/06/08 10:48:34;;;;;;;1.53;1.43;;;22.30;99.90;;;;;;5063272;28;20578;-83
2022/06/08 10:51:26;;;;;;;1.67;1.57;;;22.90;99.90;;;;;;5074015;28;20507;-82
2022/06/08 10:57:43;;;;;;;2.30;1.67;;;23.00;99.90;;;;;;5078158;28;20594;-83
2022/06/08 11:00:54;;;;;;;2.03;1.90;;;23.40;99.90;;;;;;5073885;28;21063;-83
2022/06/08 11:03:51;;;;;;;1.73;1.50;;;23.10;99.90;;;;;;5059405;28;20425;-83
2022/06/08 11:07:10;;;;;;;4.60;1.77;;;23.60;99.90;;;;;;5070413;28;20433;-84
2022/06/08 11:09:58;;;;;;;4.90;1.73;;;22.80;99.90;;;;;;5078602;28;20432;-84
2022/06/08 11:12:53;;;;;;;6.10;1.70;;;22.70;99.90;;;;;;5073203;28;20436;-85
2022/06/08 11:15:44;;;;;;;2.40;1.83;;;22.40;99.90;;;;;;5073810;28;20521;-84
2022/06/08 11:18:35;;;;;;;1.83;1.50;;;22.50;99.90;;;;;;5073157;28;20525;-84
2022/06/08 11:21:34;;;;;;;4.30;2.00;;;22.90;99.90;;;;;;5075775;28;20515;-83
2022/06/08 11:24:42;;;;;;;13.33;3.23;;;22.80;99.90;;;;;;5074966;28;20432;-84
2022/06/08 11:27:37;;;;;;;11.90;1.73;;;22.90;99.90;;;;;;5080521;28;20428;-84
2022/06/08 11:30:47;;;;;;;2.03;1.40;;;23.20;99.90;;;;;;5074735;28;20733;-85
2022/06/08 11:34:06;;;;;;;4.67;1.70;;;23.50;99.90;;;;;;5080671;28;20590;-84
2022/06/08 11:37:14;;;;;;;1.93;1.80;;;23.70;99.90;;;;;;5078689;28;20642;-86
2022/06/08 11:40:10;;;;;;;1.97;1.47;;;23.10;99.90;;;;;;5089961;28;20510;-84
2022/06/08 11:43:29;;;;;;;2.50;1.80;;;22.70;99.90;;;;;;5083430;28;20507;-84
2022/06/08 11:46:30;;;;;;;1.53;1.40;;;23.10;99.90;;;;;;5076356;28;20487;-84
2022/06/08 11:49:36;;;;;;;2.00;1.30;;;22.90;99.90;;;;;;5074794;28;20863;-84
2022/06/08 11:52:28;;;;;;;1.40;1.30;;;23.40;99.90;;;;;;5068419;28;20451;-85
2022/06/08 11:55:24;;;;;;;2.40;1.70;;;23.60;99.90;;;;;;5073498;28;20460;-83
2022/06/08 11:58:16;;;;;;;1.40;1.30;;;23.60;98.80;;;;;;5073152;28;21011;-85
2022/06/08 12:01:10;;;;;;;3.13;1.60;;;24.10;98.20;;;;;;5072613;28;20432;-86
2022/06/08 12:04:06;;;;;;;5.23;2.63;;;24.70;97.80;;;;;;5078790;28;20827;-85
2022/06/08 12:06:53;;;;;;;2.90;1.33;;;24.70;97.20;;;;;;5073210;28;20897;-83
2022/06/08 12:09:38;;;;;;;1.60;1.50;;;24.30;95.50;;;;;;5047850;28;20417;-84
2022/06/08 12:12:28;;;;;;;1.57;1.47;;;25.20;96.30;;;;;;5073578;28;20594;-84
2022/06/08 12:15:34;;;;;;;2.23;1.60;;;25.20;93.20;;;;;;5071066;28;20510;-84
2022/06/08 12:18:41;;;;;;;5.40;1.60;;;25.30;90.30;;;;;;5082964;28;20517;-85
2022/06/08 12:21:48;;;;;;;3.27;1.77;;;24.80;90.10;;;;;;5068832;28;20514;-83
2022/06/08 12:24:33;;;;;;;1.73;1.60;;;24.50;90.10;;;;;;5021019;28;20492;-84
2022/06/08 12:27:22;;;;;;;1.50;1.40;;;24.20;90.40;;;;;;5025135;28;20517;-83
2022/06/08 12:30:27;;;;;;;2.90;1.67;;;24.00;91.50;;;;;;5039155;28;20441;-84
2022/06/08 12:33:26;;;;;;;1.53;1.43;;;24.60;91.00;;;;;;5047619;28;20480;-83
2022/06/08 12:36:20;;;;;;;1.53;1.20;;;24.90;91.30;;;;;;5049398;28;20445;-84
2022/06/08 12:39:18;;;;;;;3.03;1.33;;;24.90;90.10;;;;;;5030376;28;20567;-82
2022/06/08 12:42:22;;;;;;;6.43;2.00;;;24.90;90.50;;;;;;5049888;28;20515;-81
2022/06/08 12:45:23;;;;;;;1.73;1.63;;;24.80;92.50;;;;;;5047439;28;20484;-83
2022/06/08 12:48:35;;;;;;;1.77;1.67;;;24.90;91.10;;;;;;5041614;28;20428;-81
2022/06/08 12:51:44;;;;;;;1.40;1.30;;;25.00;88.90;;;;;;5039212;28;20998;-80
2022/06/08 12:54:51;;;;;;;2.13;1.47;;;24.90;88.90;;;;;;5040592;28;20428;-83
2022/06/08 12:57:35;;;;;;;3.07;1.53;;;24.60;90.20;;;;;;5013659;28;20485;-81
2022/06/08 13:00:27;;;;;;;1.90;1.47;;;24.50;90.80;;;;;;5019224;28;20445;-83
2022/06/08 13:03:26;;;;;;;2.43;1.40;;;24.60;91.70;;;;;;5018178;28;20470;-83
2022/06/08 13:06:11;;;;;;;2.40;1.30;;;24.50;91.10;;;;;;5016570;28;20490;-83
2022/06/08 13:08:55;;;;;;;2.80;1.63;;;24.40;92.80;;;;;;5029913;28;20434;-81
2022/06/08 13:11:42;;;;;;;1.43;1.30;;;24.50;92.40;;;;;;5013780;28;20546;-80
2022/06/08 13:14:27;;;;;;;1.87;1.40;;;25.00;91.90;;;;;;5001800;28;20457;-82
2022/06/08 13:17:15;;;;;;;1.50;1.37;;;25.50;89.90;;;;;;5027459;28;20513;-82
2022/06/08 13:20:00;;;;;;;3.73;1.37;;;25.80;88.90;;;;;;5036408;28;20471;-84
2022/06/08 13:22:46;;;;;;;1.37;1.23;;;25.90;87.80;;;;;;5028276;28;20443;-83
2022/06/08 13:25:42;;;;;;;1.80;1.50;;;25.60;86.40;;;;;;5000615;28;20473;-83
2022/06/08 13:28:30;;;;;;;2.60;1.93;;;25.00;86.10;;;;;;5006593;28;20453;-81
2022/06/08 13:31:22;;;;;;;3.80;1.47;;;24.60;90.30;;;;;;5000298;28;20415;-80
2022/06/08 13:34:12;;;;;;;1.43;1.33;;;24.90;89.20;;;;;;5001251;28;20422;-81
2022/06/08 13:36:59;;;;;;;1.50;1.30;;;24.80;88.10;;;;;;4986878;28;20434;-83
2022/06/08 13:39:44;;;;;;;4.93;1.53;;;24.90;89.40;;;;;;4995106;28;21029;-82
2022/06/08 13:42:49;;;;;;;2.80;1.67;;;23.90;90.20;;;;;;5029331;28;20453;-82
2022/06/08 13:45:41;;;;;;;1.60;1.43;;;24.00;92.30;;;;;;4989826;28;20946;-83
2022/06/08 13:48:26;;;;;;;4.40;1.47;;;24.20;90.90;;;;;;5007349;28;20447;-80
2022/06/08 13:51:11;;;;;;;1.70;1.60;;;23.90;90.40;;;;;;4992768;28;20467;-83
2022/06/08 13:54:17;;;;;;;4.20;1.20;;;23.80;90.80;;;;;;5013601;28;20496;-79
2022/06/08 13:57:09;;;;;;;1.50;1.40;;;24.00;91.90;;;;;;4990970;28;20563;-82
2022/06/08 13:59:57;;;;;;;1.80;1.70;;;24.20;90.90;;;;;;4976376;28;20484;-82
2022/06/08 14:02:47;;;;;;;2.43;1.50;;;24.20;91.70;;;;;;4973168;28;20502;-80
2022/06/08 14:14:41;;;;;;;2.33;1.50;;;24.40;91.30;;;;;;4944945;29;20466;-80
2022/06/08 14:17:28;;;;;;;2.20;1.27;;;23.90;90.60;;;;;;4881291;29;20485;-85
2022/06/08 14:20:26;;;;;;;3.33;1.50;;;24.60;89.20;;;;;;4898400;29;20732;-82
2022/06/08 14:23:13;;;;;;;2.90;1.50;;;25.10;88.30;;;;;;4903949;29;20454;-84
2022/06/08 14:25:57;;;;;;;1.30;1.20;;;25.40;87.60;;;;;;4888586;29;20464;-85
2022/06/08 14:28:47;;;;;;;3.40;1.53;;;24.70;84.90;;;;;;4924384;29;20828;-84
2022/06/08 14:31:36;;;;;;;1.70;1.53;;;24.90;88.30;;;;;;4932096;29;20446;-84
2022/06/08 14:34:26;;;;;;;2.10;1.90;;;25.90;83.90;;;;;;4933410;29;20427;-82
2022/06/08 14:37:12;;;;;;;2.22;1.60;;;26.10;82.30;;;;;;4974161;28;20441;-82
2022/06/08 14:39:56;;;;;;;3.67;2.17;;;25.60;82.30;;;;;;4993438;28;20228;-85
2022/06/08 14:42:41;;;;;;;2.13;2.03;;;25.80;83.60;;;;;;5002963;28;20438;-82
2022/06/08 14:45:27;;;;;;;3.70;1.60;;;25.10;81.20;;;;;;5042054;28;20501;-85
2022/06/08 14:48:18;;;;;;;5.70;1.63;;;25.10;84.00;;;;;;5084409;28;20428;-85
2022/06/08 14:51:03;;;;;;;1.53;1.43;;;24.90;84.30;;;;;;5079502;28;20455;-85
2022/06/08 14:53:48;;;;;;;1.67;1.57;;;24.50;87.00;;;;;;5047981;28;20839;-85
2022/06/08 14:56:35;;;;;;;3.03;1.47;;;24.50;91.50;;;;;;5067678;28;20471;-85
2022/06/08 14:59:23;;;;;;;1.63;1.30;;;24.90;91.10;;;;;;5085532;28;20859;-85
2022/06/08 15:02:26;;;;;;;2.90;1.80;;;25.00;90.80;;;;;;5075485;28;20479;-86
2022/06/08 15:05:17;;;;;;;1.97;1.63;;;25.00;91.10;;;;;;5080399;28;20407;-85
2022/06/08 15:08:02;;;;;;;1.67;1.57;;;24.90;89.30;;;;;;5080559;28;20444;-84
2022/06/08 15:13:48;;;;;;;2.00;1.47;;;24.60;90.10;;;;;;5081228;28;20481;-84
2022/06/08 15:16:33;;;;;;;2.63;1.50;;;24.60;90.70;;;;;;5076831;28;20429;-82
2022/06/08 15:19:23;;;;;;;2.07;1.70;;;24.60;91.10;;;;;;5075466;28;20513;-82
2022/06/08 15:22:10;;;;;;;1.63;1.53;;;24.50;90.30;;;;;;5021790;28;20467;-82
2022/06/08 15:24:55;;;;;;;2.13;1.77;;;24.70;91.30;;;;;;5041627;28;20458;-82
2022/06/08 15:27:48;;;;;;;2.00;1.43;;;24.70;91.60;;;;;;5015648;28;20450;-83